Terminal Aerodrome Forecast
Issued by NWS

Home | Current Version | Previous Version | Text Only | Print | Product List | Glossary On
Versions: 1 2 3 4 5 6 7 8 9 10 11 12 13 14 15 16 17 18 19 20 21 22 23 24
945
FTUS43 KIND 301728
TAFBMG
TAF
KBMG 301728Z 3018/3118 19014G26KT P6SM VCTS OVC090CB
     FM302100 20012G22KT P6SM -SHRA OVC090
      TEMPO 3021/3024 4SM -TSRA OVC040CB
     FM310000 20008KT P6SM SHRA VCTS OVC090CB
     FM310600 22006KT P6SM BKN050
     FM310800 24007KT P6SM BKN015
     FM311300 24008KT P6SM OVC008=

USA.gov is the U.S. government's official web portal to all federal, state and local government web resources and services.